sensor_id;sensor_type;location;lat;lon;timestamp;pressure;altitude;pressure_sealevel;temperature;humidity
70909;BME280;58554;52.006;5.926;2022-07-29T00:02:01;100928.34;;;20.80;43.80
70909;BME280;58554;52.006;5.926;2022-07-29T00:04:28;100921.25;;;20.79;43.97
70909;BME280;58554;52.006;5.926;2022-07-29T00:06:54;100915.75;;;20.80;43.97
70909;BME280;58554;52.006;5.926;2022-07-29T00:09:20;100915.44;;;20.83;43.81
70909;BME280;58554;52.006;5.926;2022-07-29T00:11:47;100904.00;;;20.81;44.03
70909;BME280;58554;52.006;5.926;2022-07-29T00:14:14;100906.97;;;20.78;44.07
70909;BME280;58554;52.006;5.926;2022-07-29T00:16:43;100901.75;;;20.77;44.21
70909;BME280;58554;52.006;5.926;2022-07-29T00:19:10;100899.94;;;20.77;44.26
70909;BME280;58554;52.006;5.926;2022-07-29T00:21:36;100908.81;;;20.78;44.06
70909;BME280;58554;52.006;5.926;2022-07-29T00:24:03;100896.38;;;20.77;44.38
70909;BME280;58554;52.006;5.926;2022-07-29T00:26:30;100899.97;;;20.68;44.14
70909;BME280;58554;52.006;5.926;2022-07-29T00:28:57;100893.81;;;20.57;44.48
70909;BME280;58554;52.006;5.926;2022-07-29T00:31:24;100888.19;;;20.51;44.39
70909;BME280;58554;52.006;5.926;2022-07-29T00:33:54;100891.72;;;20.51;44.47
70909;BME280;58554;52.006;5.926;2022-07-29T00:36:20;100884.81;;;20.49;44.72
70909;BME280;58554;52.006;5.926;2022-07-29T00:38:47;100885.41;;;20.42;44.86
70909;BME280;58554;52.006;5.926;2022-07-29T00:41:14;100884.97;;;20.47;44.78
70909;BME280;58554;52.006;5.926;2022-07-29T00:43:41;100875.22;;;20.46;44.80
70909;BME280;58554;52.006;5.926;2022-07-29T00:46:07;100870.13;;;20.43;44.92
70909;BME280;58554;52.006;5.926;2022-07-29T00:48:34;100877.34;;;20.42;44.99
70909;BME280;58554;52.006;5.926;2022-07-29T00:51:05;100882.59;;;20.44;44.97
70909;BME280;58554;52.006;5.926;2022-07-29T00:53:32;100874.91;;;20.49;45.03
70909;BME280;58554;52.006;5.926;2022-07-29T00:55:59;100871.94;;;20.52;45.09
70909;BME280;58554;52.006;5.926;2022-07-29T00:58:26;100868.25;;;20.53;45.20
70909;BME280;58554;52.006;5.926;2022-07-29T01:00:53;100872.91;;;20.51;45.10
70909;BME280;58554;52.006;5.926;2022-07-29T01:03:20;100871.25;;;20.50;44.89
70909;BME280;58554;52.006;5.926;2022-07-29T01:05:46;100869.16;;;20.44;45.18
70909;BME280;58554;52.006;5.926;2022-07-29T01:08:15;100871.16;;;20.42;45.43
70909;BME280;58554;52.006;5.926;2022-07-29T01:10:44;100874.53;;;20.44;45.38
70909;BME280;58554;52.006;5.926;2022-07-29T01:13:13;100866.84;;;20.49;45.29
70909;BME280;58554;52.006;5.926;2022-07-29T01:15:44;100864.88;;;20.51;45.23
70909;BME280;58554;52.006;5.926;2022-07-29T01:18:16;100872.63;;;20.54;45.42
70909;BME280;58554;52.006;5.926;2022-07-29T01:21:02;100871.16;;;20.60;45.27
70909;BME280;58554;52.006;5.926;2022-07-29T01:24:15;100861.13;;;20.62;45.12
70909;BME280;58554;52.006;5.926;2022-07-29T01:27:28;100871.47;;;20.57;45.23
70909;BME280;58554;52.006;5.926;2022-07-29T01:30:10;100865.28;;;20.56;45.28
70909;BME280;58554;52.006;5.926;2022-07-29T01:32:39;100868.34;;;20.61;45.28
70909;BME280;58554;52.006;5.926;2022-07-29T01:35:14;100855.28;;;20.67;45.15
70909;BME280;58554;52.006;5.926;2022-07-29T01:37:48;100855.00;;;20.70;44.95
70909;BME280;58554;52.006;5.926;2022-07-29T01:40:25;100856.59;;;20.62;44.83
70909;BME280;58554;52.006;5.926;2022-07-29T01:42:57;100855.13;;;20.50;44.97
70909;BME280;58554;52.006;5.926;2022-07-29T01:45:34;100855.97;;;20.41;45.15
70909;BME280;58554;52.006;5.926;2022-07-29T01:48:11;100859.13;;;20.36;45.49
70909;BME280;58554;52.006;5.926;2022-07-29T01:50:47;100860.97;;;20.36;45.43
70909;BME280;58554;52.006;5.926;2022-07-29T01:53:23;100862.38;;;20.40;45.54
70909;BME280;58554;52.006;5.926;2022-07-29T01:55:57;100858.94;;;20.48;45.15
70909;BME280;58554;52.006;5.926;2022-07-29T01:58:28;100864.16;;;20.49;45.19
70909;BME280;58554;52.006;5.926;2022-07-29T02:01:01;100865.31;;;20.47;45.04
70909;BME280;58554;52.006;5.926;2022-07-29T02:03:32;100865.47;;;20.45;45.01
70909;BME280;58554;52.006;5.926;2022-07-29T02:06:02;100866.47;;;20.44;45.29
70909;BME280;58554;52.006;5.926;2022-07-29T02:08:33;100868.47;;;20.42;45.10
70909;BME280;58554;52.006;5.926;2022-07-29T02:11:02;100872.69;;;20.35;45.00
70909;BME280;58554;52.006;5.926;2022-07-29T02:13:32;100878.81;;;20.27;45.32
70909;BME280;58554;52.006;5.926;2022-07-29T02:16:06;100880.38;;;20.30;45.17
70909;BME280;58554;52.006;5.926;2022-07-29T02:18:37;100883.44;;;20.35;45.33
70909;BME280;58554;52.006;5.926;2022-07-29T02:21:09;100897.56;;;20.37;45.39
70909;BME280;58554;52.006;5.926;2022-07-29T02:23:39;100894.31;;;20.43;45.04
70909;BME280;58554;52.006;5.926;2022-07-29T02:26:07;100891.03;;;20.49;45.05
70909;BME280;58554;52.006;5.926;2022-07-29T02:28:35;100904.31;;;20.51;44.93
70909;BME280;58554;52.006;5.926;2022-07-29T02:31:05;100902.34;;;20.53;45.08
70909;BME280;58554;52.006;5.926;2022-07-29T02:33:34;100896.63;;;20.56;45.23
70909;BME280;58554;52.006;5.926;2022-07-29T02:36:04;100897.19;;;20.59;45.29
70909;BME280;58554;52.006;5.926;2022-07-29T02:38:31;100893.22;;;20.63;45.38
70909;BME280;58554;52.006;5.926;2022-07-29T02:41:05;100878.63;;;20.66;45.45
70909;BME280;58554;52.006;5.926;2022-07-29T02:43:36;100884.56;;;20.70;45.20
70909;BME280;58554;52.006;5.926;2022-07-29T02:46:11;100879.03;;;20.71;45.14
70909;BME280;58554;52.006;5.926;2022-07-29T02:48:49;100879.88;;;20.72;45.07
70909;BME280;58554;52.006;5.926;2022-07-29T02:51:27;100877.66;;;20.67;44.99
70909;BME280;58554;52.006;5.926;2022-07-29T02:54:01;100879.78;;;20.63;45.19
70909;BME280;58554;52.006;5.926;2022-07-29T02:56:34;100871.34;;;20.58;45.13
70909;BME280;58554;52.006;5.926;2022-07-29T02:59:05;100872.63;;;20.54;45.38
70909;BME280;58554;52.006;5.926;2022-07-29T03:01:40;100864.72;;;20.53;45.35
70909;BME280;58554;52.006;5.926;2022-07-29T03:04:09;100862.88;;;20.53;45.77
70909;BME280;58554;52.006;5.926;2022-07-29T03:06:38;100864.03;;;20.51;45.40
70909;BME280;58554;52.006;5.926;2022-07-29T03:09:07;100859.09;;;20.46;45.83
70909;BME280;58554;52.006;5.926;2022-07-29T03:11:36;100858.94;;;20.48;45.54
70909;BME280;58554;52.006;5.926;2022-07-29T03:14:05;100855.88;;;20.42;45.68
70909;BME280;58554;52.006;5.926;2022-07-29T03:16:34;100844.84;;;20.36;45.92
70909;BME280;58554;52.006;5.926;2022-07-29T03:19:05;100853.19;;;20.33;46.24
70909;BME280;58554;52.006;5.926;2022-07-29T03:21:31;100850.13;;;20.28;46.57
70909;BME280;58554;52.006;5.926;2022-07-29T03:23:59;100841.66;;;20.22;47.13
70909;BME280;58554;52.006;5.926;2022-07-29T03:26:26;100843.13;;;20.17;47.43
70909;BME280;58554;52.006;5.926;2022-07-29T03:28:53;100833.81;;;20.11;47.78
70909;BME280;58554;52.006;5.926;2022-07-29T03:31:20;100829.88;;;20.06;48.11
70909;BME280;58554;52.006;5.926;2022-07-29T03:33:49;100819.59;;;20.01;48.27
70909;BME280;58554;52.006;5.926;2022-07-29T03:36:16;100808.28;;;19.97;48.54
70909;BME280;58554;52.006;5.926;2022-07-29T03:38:44;100815.94;;;19.92;48.88
70909;BME280;58554;52.006;5.926;2022-07-29T03:41:13;100805.81;;;19.86;49.11
70909;BME280;58554;52.006;5.926;2022-07-29T03:43:43;100796.38;;;19.82;49.03
70909;BME280;58554;52.006;5.926;2022-07-29T03:46:13;100797.22;;;19.73;49.08
70909;BME280;58554;52.006;5.926;2022-07-29T03:48:51;100803.19;;;19.57;49.58
70909;BME280;58554;52.006;5.926;2022-07-29T03:51:21;100802.94;;;19.50;49.95
70909;BME280;58554;52.006;5.926;2022-07-29T03:53:48;100811.97;;;19.49;49.85
70909;BME280;58554;52.006;5.926;2022-07-29T03:56:15;100802.38;;;19.47;49.82
70909;BME280;58554;52.006;5.926;2022-07-29T03:58:47;100807.19;;;19.43;50.35
70909;BME280;58554;52.006;5.926;2022-07-29T04:01:16;100804.38;;;19.35;49.98
70909;BME280;58554;52.006;5.926;2022-07-29T04:03:44;100801.28;;;19.20;50.35
70909;BME280;58554;52.006;5.926;2022-07-29T04:06:14;100805.25;;;19.06;50.62
70909;BME280;58554;52.006;5.926;2022-07-29T04:08:40;100804.13;;;18.89;51.18
70909;BME280;58554;52.006;5.926;2022-07-29T04:11:06;100801.31;;;18.71;51.46
70909;BME280;58554;52.006;5.926;2022-07-29T04:13:34;100803.22;;;18.50;51.66
70909;BME280;58554;52.006;5.926;2022-07-29T04:16:01;100799.22;;;18.25;52.08
70909;BME280;58554;52.006;5.926;2022-07-29T04:18:27;100799.47;;;18.02;52.30
70909;BME280;58554;52.006;5.926;2022-07-29T04:20:54;100804.72;;;17.83;52.92
70909;BME280;58554;52.006;5.926;2022-07-29T04:23:23;100811.91;;;17.61;53.37
70909;BME280;58554;52.006;5.926;2022-07-29T04:25:49;100814.63;;;17.40;53.69
70909;BME280;58554;52.006;5.926;2022-07-29T04:28:16;100818.97;;;17.20;54.18
70909;BME280;58554;52.006;5.926;2022-07-29T04:30:42;100827.28;;;17.06;54.79
70909;BME280;58554;52.006;5.926;2022-07-29T04:33:09;100822.25;;;16.91;55.16
70909;BME280;58554;52.006;5.926;2022-07-29T04:35:36;100829.81;;;16.75;55.64
70909;BME280;58554;52.006;5.926;2022-07-29T04:38:05;100842.47;;;16.62;55.97
70909;BME280;58554;52.006;5.926;2022-07-29T04:40:34;100847.84;;;16.50;56.52
70909;BME280;58554;52.006;5.926;2022-07-29T04:43:01;100847.63;;;16.42;56.82
70909;BME280;58554;52.006;5.926;2022-07-29T04:45:28;100846.28;;;16.36;57.01
70909;BME280;58554;52.006;5.926;2022-07-29T04:47:55;100839.63;;;16.31;57.15
70909;BME280;58554;52.006;5.926;2022-07-29T04:50:21;100827.88;;;16.22;57.36
70909;BME280;58554;52.006;5.926;2022-07-29T04:52:48;100820.72;;;16.11;57.57
70909;BME280;58554;52.006;5.926;2022-07-29T04:55:14;100831.16;;;16.03;58.06
70909;BME280;58554;52.006;5.926;2022-07-29T04:57:44;100827.53;;;15.93;58.17
70909;BME280;58554;52.006;5.926;2022-07-29T05:00:11;100825.72;;;15.82;58.37
70909;BME280;58554;52.006;5.926;2022-07-29T05:02:38;100826.25;;;15.74;58.71
70909;BME280;58554;52.006;5.926;2022-07-29T05:05:06;100836.56;;;15.68;58.85
70909;BME280;58554;52.006;5.926;2022-07-29T05:07:33;100837.88;;;15.62;59.15
70909;BME280;58554;52.006;5.926;2022-07-29T05:10:00;100845.16;;;15.60;59.25
70909;BME280;58554;52.006;5.926;2022-07-29T05:12:26;100837.50;;;15.55;59.62
70909;BME280;58554;52.006;5.926;2022-07-29T05:14:55;100834.47;;;15.49;59.82
70909;BME280;58554;52.006;5.926;2022-07-29T05:17:22;100835.06;;;15.41;60.11
70909;BME280;58554;52.006;5.926;2022-07-29T05:19:48;100841.59;;;15.37;60.35
70909;BME280;58554;52.006;5.926;2022-07-29T05:22:15;100840.75;;;15.36;60.28
70909;BME280;58554;52.006;5.926;2022-07-29T05:24:41;100848.75;;;15.36;60.25
70909;BME280;58554;52.006;5.926;2022-07-29T05:27:07;100848.00;;;15.34;60.39
70909;BME280;58554;52.006;5.926;2022-07-29T05:29:34;100850.78;;;15.33;60.48
70909;BME280;58554;52.006;5.926;2022-07-29T05:32:04;100867.63;;;15.33;60.84
70909;BME280;58554;52.006;5.926;2022-07-29T05:34:31;100872.81;;;15.35;60.82
70909;BME280;58554;52.006;5.926;2022-07-29T05:36:58;100877.94;;;15.38;60.94
70909;BME280;58554;52.006;5.926;2022-07-29T05:39:24;100880.13;;;15.44;60.96
70909;BME280;58554;52.006;5.926;2022-07-29T05:41:51;100877.13;;;15.49;61.10
70909;BME280;58554;52.006;5.926;2022-07-29T05:44:17;100885.59;;;15.54;61.13
70909;BME280;58554;52.006;5.926;2022-07-29T05:46:44;100885.28;;;15.58;61.18
70909;BME280;58554;52.006;5.926;2022-07-29T05:49:13;100881.41;;;15.63;61.10
70909;BME280;58554;52.006;5.926;2022-07-29T05:51:39;100877.41;;;15.68;61.30
70909;BME280;58554;52.006;5.926;2022-07-29T05:54:06;100878.84;;;15.72;61.30
70909;BME280;58554;52.006;5.926;2022-07-29T05:56:32;100881.41;;;15.74;61.26
70909;BME280;58554;52.006;5.926;2022-07-29T05:58:59;100882.03;;;15.77;61.42
70909;BME280;58554;52.006;5.926;2022-07-29T06:01:25;100887.97;;;15.81;61.39
70909;BME280;58554;52.006;5.926;2022-07-29T06:03:52;100886.78;;;15.85;61.31
70909;BME280;58554;52.006;5.926;2022-07-29T06:06:21;100887.41;;;15.89;61.46
70909;BME280;58554;52.006;5.926;2022-07-29T06:08:47;100881.97;;;15.90;61.19
70909;BME280;58554;52.006;5.926;2022-07-29T06:11:13;100883.41;;;15.94;61.14
70909;BME280;58554;52.006;5.926;2022-07-29T06:13:40;100881.38;;;15.98;61.35
70909;BME280;58554;52.006;5.926;2022-07-29T06:16:06;100880.38;;;15.99;60.83
70909;BME280;58554;52.006;5.926;2022-07-29T06:18:33;100881.38;;;15.98;61.04
70909;BME280;58554;52.006;5.926;2022-07-29T06:20:59;100877.59;;;16.01;60.80
70909;BME280;58554;52.006;5.926;2022-07-29T06:23:28;100884.41;;;16.05;60.67
70909;BME280;58554;52.006;5.926;2022-07-29T06:25:54;100878.81;;;16.08;60.46
70909;BME280;58554;52.006;5.926;2022-07-29T06:28:21;100878.31;;;16.14;60.50
70909;BME280;58554;52.006;5.926;2022-07-29T06:30:47;100879.78;;;16.18;60.08
70909;BME280;58554;52.006;5.926;2022-07-29T06:33:17;100881.97;;;16.24;60.24
70909;BME280;58554;52.006;5.926;2022-07-29T06:35:44;100885.13;;;16.29;60.27
70909;BME280;58554;52.006;5.926;2022-07-29T06:38:11;100879.66;;;16.31;59.51
70909;BME280;58554;52.006;5.926;2022-07-29T06:40:41;100874.53;;;16.39;59.69
70909;BME280;58554;52.006;5.926;2022-07-29T06:43:08;100878.28;;;16.48;59.72
70909;BME280;58554;52.006;5.926;2022-07-29T06:45:34;100880.72;;;16.51;59.60
70909;BME280;58554;52.006;5.926;2022-07-29T06:48:00;100871.50;;;16.55;59.52
70909;BME280;58554;52.006;5.926;2022-07-29T06:50:27;100867.22;;;16.64;59.57
70909;BME280;58554;52.006;5.926;2022-07-29T06:52:53;100871.94;;;16.71;59.21
70909;BME280;58554;52.006;5.926;2022-07-29T06:55:20;100875.94;;;16.77;59.08
70909;BME280;58554;52.006;5.926;2022-07-29T06:57:49;100867.09;;;16.88;59.22
70909;BME280;58554;52.006;5.926;2022-07-29T07:00:16;100859.88;;;16.99;58.94
70909;BME280;58554;52.006;5.926;2022-07-29T07:02:42;100865.03;;;17.12;58.61
70909;BME280;58554;52.006;5.926;2022-07-29T07:05:09;100866.69;;;17.25;58.38
70909;BME280;58554;52.006;5.926;2022-07-29T07:07:35;100875.63;;;17.35;57.95
70909;BME280;58554;52.006;5.926;2022-07-29T07:10:02;100867.81;;;17.43;57.83
70909;BME280;58554;52.006;5.926;2022-07-29T07:12:30;100868.13;;;17.50;57.97
70909;BME280;58554;52.006;5.926;2022-07-29T07:14:59;100874.78;;;17.55;57.93
70909;BME280;58554;52.006;5.926;2022-07-29T07:17:25;100873.41;;;17.61;57.62
70909;BME280;58554;52.006;5.926;2022-07-29T07:19:51;100875.56;;;17.67;57.47
70909;BME280;58554;52.006;5.926;2022-07-29T07:22:18;100870.94;;;17.69;57.33
70909;BME280;58554;52.006;5.926;2022-07-29T07:24:44;100875.44;;;17.69;57.50
70909;BME280;58554;52.006;5.926;2022-07-29T07:27:11;100873.63;;;17.69;57.17
70909;BME280;58554;52.006;5.926;2022-07-29T07:29:37;100864.47;;;17.72;57.06
70909;BME280;58554;52.006;5.926;2022-07-29T07:32:07;100871.38;;;17.74;57.17
70909;BME280;58554;52.006;5.926;2022-07-29T07:34:33;100868.56;;;17.76;57.15
70909;BME280;58554;52.006;5.926;2022-07-29T07:37:00;100885.25;;;17.79;57.24
70909;BME280;58554;52.006;5.926;2022-07-29T07:39:26;100873.69;;;17.79;56.92
70909;BME280;58554;52.006;5.926;2022-07-29T07:41:53;100876.47;;;17.77;57.06
70909;BME280;58554;52.006;5.926;2022-07-29T07:44:19;100869.91;;;17.82;56.80
70909;BME280;58554;52.006;5.926;2022-07-29T07:46:45;100869.50;;;17.86;56.72
70909;BME280;58554;52.006;5.926;2022-07-29T07:49:14;100865.59;;;17.90;56.78
70909;BME280;58554;52.006;5.926;2022-07-29T07:51:41;100860.94;;;17.92;56.75
70909;BME280;58554;52.006;5.926;2022-07-29T07:54:07;100864.47;;;17.93;56.93
70909;BME280;58554;52.006;5.926;2022-07-29T07:56:34;100874.06;;;17.95;56.91
70909;BME280;58554;52.006;5.926;2022-07-29T07:59:00;100881.00;;;17.98;57.04
70909;BME280;58554;52.006;5.926;2022-07-29T08:01:27;100873.50;;;18.01;56.68
70909;BME280;58554;52.006;5.926;2022-07-29T08:03:53;100877.63;;;18.06;56.56
70909;BME280;58554;52.006;5.926;2022-07-29T08:06:22;100881.59;;;18.11;56.63
70909;BME280;58554;52.006;5.926;2022-07-29T08:08:48;100876.97;;;18.13;56.71
70909;BME280;58554;52.006;5.926;2022-07-29T08:11:15;100882.03;;;18.16;56.49
70909;BME280;58554;52.006;5.926;2022-07-29T08:13:41;100883.75;;;18.17;56.43
70909;BME280;58554;52.006;5.926;2022-07-29T08:16:07;100878.97;;;18.21;56.54
70909;BME280;58554;52.006;5.926;2022-07-29T08:18:34;100888.44;;;18.25;56.68
70909;BME280;58554;52.006;5.926;2022-07-29T08:21:01;100881.66;;;18.31;56.42
70909;BME280;58554;52.006;5.926;2022-07-29T08:23:30;100877.47;;;18.38;56.66
70909;BME280;58554;52.006;5.926;2022-07-29T08:25:57;100873.56;;;18.42;56.65
70909;BME280;58554;52.006;5.926;2022-07-29T08:28:24;100876.78;;;18.46;56.20
70909;BME280;58554;52.006;5.926;2022-07-29T08:30:50;100876.53;;;18.49;56.40
70909;BME280;58554;52.006;5.926;2022-07-29T08:33:16;100873.88;;;18.58;56.56
70909;BME280;58554;52.006;5.926;2022-07-29T08:35:43;100876.44;;;18.70;56.40
70909;BME280;58554;52.006;5.926;2022-07-29T08:38:10;100872.94;;;18.79;56.07
70909;BME280;58554;52.006;5.926;2022-07-29T08:40:39;100871.13;;;18.89;55.87
70909;BME280;58554;52.006;5.926;2022-07-29T08:43:06;100866.91;;;18.96;55.90
70909;BME280;58554;52.006;5.926;2022-07-29T08:45:41;100872.69;;;19.01;55.61
70909;BME280;58554;52.006;5.926;2022-07-29T08:48:11;100883.97;;;19.05;55.54
70909;BME280;58554;52.006;5.926;2022-07-29T08:50:40;100876.63;;;19.07;55.17
70909;BME280;58554;52.006;5.926;2022-07-29T08:53:12;100882.84;;;19.08;55.32
70909;BME280;58554;52.006;5.926;2022-07-29T08:55:45;100888.91;;;19.10;55.22
70909;BME280;58554;52.006;5.926;2022-07-29T08:58:14;100888.47;;;19.14;55.45
70909;BME280;58554;52.006;5.926;2022-07-29T09:00:44;100891.72;;;19.18;55.15
70909;BME280;58554;52.006;5.926;2022-07-29T09:03:19;100888.91;;;19.19;55.23
70909;BME280;58554;52.006;5.926;2022-07-29T09:05:48;100891.47;;;19.21;55.13
70909;BME280;58554;52.006;5.926;2022-07-29T09:08:16;100893.84;;;19.24;55.48
70909;BME280;58554;52.006;5.926;2022-07-29T09:10:46;100895.41;;;19.27;55.06
70909;BME280;58554;52.006;5.926;2022-07-29T09:13:12;100900.75;;;19.27;55.22
70909;BME280;58554;52.006;5.926;2022-07-29T09:15:39;100911.34;;;19.28;55.01
70909;BME280;58554;52.006;5.926;2022-07-29T09:18:06;100911.91;;;19.32;55.04
70909;BME280;58554;52.006;5.926;2022-07-29T09:20:32;100910.78;;;19.34;54.87
70909;BME280;58554;52.006;5.926;2022-07-29T09:23:07;100912.31;;;19.37;55.13
70909;BME280;58554;52.006;5.926;2022-07-29T09:25:34;100912.31;;;19.37;54.62
70909;BME280;58554;52.006;5.926;2022-07-29T09:28:12;100911.34;;;19.38;54.83
70909;BME280;58554;52.006;5.926;2022-07-29T09:30:50;100910.34;;;19.39;54.67
70909;BME280;58554;52.006;5.926;2022-07-29T09:33:20;100901.47;;;19.38;54.52
70909;BME280;58554;52.006;5.926;2022-07-29T09:35:59;100904.84;;;19.40;54.95
70909;BME280;58554;52.006;5.926;2022-07-29T09:38:25;100901.88;;;19.43;55.06
70909;BME280;58554;52.006;5.926;2022-07-29T09:40:56;100904.56;;;19.43;55.12
70909;BME280;58554;52.006;5.926;2022-07-29T09:43:26;100895.69;;;19.43;55.37
70909;BME280;58554;52.006;5.926;2022-07-29T09:45:52;100900.06;;;19.44;55.49
70909;BME280;58554;52.006;5.926;2022-07-29T09:48:21;100894.84;;;19.42;55.71
70909;BME280;58554;52.006;5.926;2022-07-29T09:50:50;100895.97;;;19.40;55.77
70909;BME280;58554;52.006;5.926;2022-07-29T09:53:31;100913.88;;;19.39;56.31
70909;BME280;58554;52.006;5.926;2022-07-29T09:55:58;100914.88;;;19.38;56.25
70909;BME280;58554;52.006;5.926;2022-07-29T09:58:27;100916.41;;;19.41;55.94
70909;BME280;58554;52.006;5.926;2022-07-29T10:00:55;100911.06;;;19.41;55.68
70909;BME280;58554;52.006;5.926;2022-07-29T10:03:22;100897.66;;;19.41;55.89
70909;BME280;58554;52.006;5.926;2022-07-29T10:06:07;100912.06;;;19.40;56.19
70909;BME280;58554;52.006;5.926;2022-07-29T10:08:34;100912.78;;;19.42;55.86
70909;BME280;58554;52.006;5.926;2022-07-29T10:11:12;100906.84;;;19.48;56.02
70909;BME280;58554;52.006;5.926;2022-07-29T10:13:45;100910.94;;;19.62;56.43
70909;BME280;58554;52.006;5.926;2022-07-29T10:16:14;100898.06;;;19.75;55.97
70909;BME280;58554;52.006;5.926;2022-07-29T10:18:42;100900.13;;;19.91;55.82
70909;BME280;58554;52.006;5.926;2022-07-29T10:21:10;100901.75;;;20.12;55.40
70909;BME280;58554;52.006;5.926;2022-07-29T10:23:38;100905.38;;;20.30;54.26
70909;BME280;58554;52.006;5.926;2022-07-29T10:26:07;100903.50;;;20.40;54.06
70909;BME280;58554;52.006;5.926;2022-07-29T10:28:36;100903.63;;;20.49;54.29
70909;BME280;58554;52.006;5.926;2022-07-29T10:31:06;100897.34;;;20.58;53.68
70909;BME280;58554;52.006;5.926;2022-07-29T10:33:47;100902.81;;;20.66;53.53
70909;BME280;58554;52.006;5.926;2022-07-29T10:36:38;100895.84;;;20.73;53.07
70909;BME280;58554;52.006;5.926;2022-07-29T10:39:22;100900.06;;;20.76;52.84
70909;BME280;58554;52.006;5.926;2022-07-29T10:42:13;100897.75;;;20.81;53.10
70909;BME280;58554;52.006;5.926;2022-07-29T10:44:44;100898.16;;;20.86;52.42
70909;BME280;58554;52.006;5.926;2022-07-29T10:47:22;100898.25;;;20.94;52.05
70909;BME280;58554;52.006;5.926;2022-07-29T10:49:58;100901.03;;;21.02;51.85
70909;BME280;58554;52.006;5.926;2022-07-29T10:52:54;100901.25;;;21.09;51.88
70909;BME280;58554;52.006;5.926;2022-07-29T10:55:33;100897.13;;;21.15;51.99
70909;BME280;58554;52.006;5.926;2022-07-29T10:58:12;100898.31;;;21.20;51.72
70909;BME280;58554;52.006;5.926;2022-07-29T11:00:39;100893.22;;;21.27;51.21
70909;BME280;58554;52.006;5.926;2022-07-29T11:03:08;100888.81;;;21.26;50.41
70909;BME280;58554;52.006;5.926;2022-07-29T11:05:51;100901.13;;;21.29;50.78
70909;BME280;58554;52.006;5.926;2022-07-29T11:08:24;100898.44;;;21.29;51.16
70909;BME280;58554;52.006;5.926;2022-07-29T11:10:52;100900.00;;;21.31;51.47
70909;BME280;58554;52.006;5.926;2022-07-29T11:13:46;100907.13;;;21.40;51.00
70909;BME280;58554;52.006;5.926;2022-07-29T11:16:14;100899.41;;;21.46;50.71
70909;BME280;58554;52.006;5.926;2022-07-29T11:21:48;100901.72;;;21.58;50.63
70909;BME280;58554;52.006;5.926;2022-07-29T11:24:17;100888.94;;;21.60;50.32
70909;BME280;58554;52.006;5.926;2022-07-29T11:26:45;100900.56;;;21.61;50.62
70909;BME280;58554;52.006;5.926;2022-07-29T11:29:32;100889.84;;;21.69;50.42
70909;BME280;58554;52.006;5.926;2022-07-29T11:32:09;100890.75;;;21.78;49.67
70909;BME280;58554;52.006;5.926;2022-07-29T11:34:40;100896.66;;;21.81;49.72
70909;BME280;58554;52.006;5.926;2022-07-29T11:37:14;100883.72;;;21.85;49.73
70909;BME280;58554;52.006;5.926;2022-07-29T11:39:43;100881.56;;;21.89;49.95
70909;BME280;58554;52.006;5.926;2022-07-29T11:42:44;100885.53;;;22.02;50.00
70909;BME280;58554;52.006;5.926;2022-07-29T11:45:17;100885.09;;;22.15;49.61
70909;BME280;58554;52.006;5.926;2022-07-29T11:47:51;100873.53;;;22.23;49.46
70909;BME280;58554;52.006;5.926;2022-07-29T11:50:33;100878.28;;;22.29;49.76
70909;BME280;58554;52.006;5.926;2022-07-29T11:53:09;100879.44;;;22.35;49.56
70909;BME280;58554;52.006;5.926;2022-07-29T11:55:37;100875.13;;;22.42;48.98
70909;BME280;58554;52.006;5.926;2022-07-29T11:58:05;100882.56;;;22.48;49.05
70909;BME280;58554;52.006;5.926;2022-07-29T12:00:34;100880.88;;;22.55;48.49
70909;BME280;58554;52.006;5.926;2022-07-29T12:03:04;100877.69;;;22.60;48.24
70909;BME280;58554;52.006;5.926;2022-07-29T12:05:39;100876.19;;;22.66;48.48
70909;BME280;58554;52.006;5.926;2022-07-29T12:08:09;100878.91;;;22.74;48.22
70909;BME280;58554;52.006;5.926;2022-07-29T12:10:41;100882.34;;;22.84;48.13
70909;BME280;58554;52.006;5.926;2022-07-29T12:13:09;100886.72;;;22.93;47.65
70909;BME280;58554;52.006;5.926;2022-07-29T12:15:36;100884.88;;;23.10;47.67
70909;BME280;58554;52.006;5.926;2022-07-29T12:18:14;100884.06;;;23.26;46.88
70909;BME280;58554;52.006;5.926;2022-07-29T12:20:45;100883.38;;;23.40;46.92
70909;BME280;58554;52.006;5.926;2022-07-29T12:23:12;100879.00;;;23.48;46.58
70909;BME280;58554;52.006;5.926;2022-07-29T12:25:41;100882.91;;;23.53;46.67
70909;BME280;58554;52.006;5.926;2022-07-29T12:28:10;100875.84;;;23.60;46.73
70909;BME280;58554;52.006;5.926;2022-07-29T12:30:41;100877.31;;;23.71;46.31
70909;BME280;58554;52.006;5.926;2022-07-29T12:33:14;100874.41;;;23.81;46.06
70909;BME280;58554;52.006;5.926;2022-07-29T12:35:50;100868.00;;;23.90;45.50
70909;BME280;58554;52.006;5.926;2022-07-29T12:38:19;100873.53;;;23.97;45.54
70909;BME280;58554;52.006;5.926;2022-07-29T12:40:48;100876.06;;;24.07;45.84
70909;BME280;58554;52.006;5.926;2022-07-29T12:43:16;100876.88;;;24.15;44.99
70909;BME280;58554;52.006;5.926;2022-07-29T12:45:46;100877.03;;;24.22;45.40
70909;BME280;58554;52.006;5.926;2022-07-29T12:48:14;100873.47;;;24.30;44.83
70909;BME280;58554;52.006;5.926;2022-07-29T12:51:01;100867.66;;;24.41;44.75
70909;BME280;58554;52.006;5.926;2022-07-29T12:53:29;100868.00;;;24.46;43.80
70909;BME280;58554;52.006;5.926;2022-07-29T12:55:57;100855.13;;;24.48;43.61
70909;BME280;58554;52.006;5.926;2022-07-29T12:58:33;100867.75;;;24.56;43.85
70909;BME280;58554;52.006;5.926;2022-07-29T13:01:11;100863.13;;;24.64;43.45
70909;BME280;58554;52.006;5.926;2022-07-29T13:03:44;100861.91;;;24.75;43.01
70909;BME280;58554;52.006;5.926;2022-07-29T13:06:36;100856.44;;;24.83;42.23
70909;BME280;58554;52.006;5.926;2022-07-29T13:09:09;100856.59;;;24.90;42.51